Aérodrome :
LOGIN :

S'inscrire | Disclaimer

   EN    FR    IT 

 










Légende :    VFR   VFR Marginal   IFR   IFR Intensif   IFR Très Intensif
Visi : 
Plafond : 
>= 8 km
>= 3000ft
5 à 8 km
1000 à 3000 ft
1500m à 5 km
500 à 1000 ft
800 à 1500m
200 à 500 ft
< 800m
< 200 ft
Symboles :   Orages  Brouillard  Fortes neiges  Fortes précipitations  Vent > 20 kt
SIGMETs :   Divers  Orages  Givrage  Turbulence  Onde Orograph.  Cendres Volcan.







- Altitude de l'aérodrome : 20 ft


EBFN - Koksijde

DERNIER METAR :
  • 172255Z AUTO 04005KT 9999 NCD 11/10 Q1023 BLU

METARs EXPIRÉS :
  • 172243Z AUTO 03004KT 9000 NCD 11/10 Q1023 BLU
  • 172225Z AUTO 01003KT 4900 BR FEW016/// 11/09 Q1023 GRN
  • 172213Z AUTO 01003KT 3300 BR FEW016/// 11/10 Q1023 YLO
  • 172206Z AUTO 01003KT 4800 FEW016/// 11/10 Q1023 GRN
  • 172125Z AUTO 36003KT 9999 NCD 13/11 Q1022 BLU
  • 172055Z AUTO 36004KT 9999 FEW015/// 13/11 Q1022 BLU
  • 172025Z AUTO 36004KT 9999 NCD 13/11 Q1022 BLU
  • 172013Z AUTO 35003KT 9000 NCD 12/11 Q1022 BLU

TAF TAF EBFN
Valide du 17 à 19h jusqu'au 18 à 07h UTC


171541Z 1719/1807 02006KT 9999 FEW026 SCT100
TEMPO 1720/1802 8000 SCT007
BECMG 1801/1803 04010KT 7000 FEW007 SCT016
BECMG 1803/1805 4000 FEW004 SCT014 BKN016
TEMPO 1803/1807 BKN003
Pas de NOTAMs connus pour ce terrain.



MET'MAP, la Météo Aéronautique d'un coup d'oeil ! - Copyright ORBIFLY Décembre 2007 - Disclaimer

ORBIFLY MET'MAP TEAM :

Programmation & Développement : Alexandra Zaïnal
Conception & Développement : Baudouin d'Aumeries
Co-Programmation & Développement : Marc-Olivier Méhu
Soutien technique & logistique : Manuel Goepfert

Contact : metmap@orbifly.com




SOURCES & CREDITS :

   NOAA